Santos Dumont Airport

SBRJ · Rio de Janeiro, 巴西

罗盘
风向 的 风向 090° Santos Dumont Airport 2R/20L
风: 5 kt, 2 beaufort

2 kt

5 kt
改变
0 2.000 4.000 6.000 8.000 10.000
FEW 2.000 ft
SCT 5.000 ft
BKN 10.000 ft
METAR SBRJ 071900Z 09005KT 9999 FEW020 SCT050 BKN100 27/22 Q1005

METAR Santos Dumont Airport - SBRJ/SDU

Santos Dumont Airport是Rio De Janeiro,巴西中的中型机场。 该机场有2条跑道: 2R/20L 和 2L/20R. 该领域的国际民航组织标志是SBRJ 它的国际航空运输协会代码是SDU.

这份报告是针对2022年10月7日 16:00, 当地时间在Santos Dumont Airport进行的。

机场观察

风向为090°,速度为5 kt。

可见度为10 km 或者更多。

有几云在2.000 ft的高度, 疏云,零星散落的云朵在5.000 ft的高度 和 碎云在10.000 ft的高度。 破损或更高的上限为10.000 ft。

温度和风寒是27 °C。 热指数为29。 露点为22 °C,相对湿度为74%。 海平面上的气压为1005 hPa (QNH)。

白天

今天,太阳从05:27升起,在17:53降落。 这适用于Santos Dumont Airport,世界夏令时可能有所不同。 当地时间与世界标准时间之间的时差为-3 小时。 夏令时目前正在进行中。

公司介绍

我们没有关于这个机场的公司信息。

体会

到Vliegles.nl去找飞行课程,跳伞和其他飞行体验。 浏览页面,了解Santos Dumont Airport附近所有可用的活动。 你也可以使用搜索功能来寻找你所在地附近的特定飞行课程、跳伞或其他飞行体验。

跑道

Id 标题 侧风 逆风 侧风 %
2R/20L 020°-200° 5 kt 2 kt 94 %
2L/20R 020°-200° 5 kt 2 kt 94 %

逆风成分最大的方向会被突出显示,并用于横风计算。 这并不一定意味着这个方向在使用。

乌云

2.000 ft FEW 几云
5.000 ft SCT 疏云,零星散落的云朵
10.000 ft BKN 碎云

温度 & 天气

温度 27 °C
露点 22 °C
相对湿度 74%
热度指数 29 °C
Kp-index 1 (0-9)

白天

日出
05:27
中午
11:40
日落
17:53 (1h 28m)

小工具

你想在你的网站上有一个关于Santos Dumont Airport的当前航空天气(METAR)的小部件吗?

</> 显示HTML代码

我们和第三方通过cookies跟踪您在我们网站上的上网行为。如果您继续,我们认为您同意我们的cookie政策。 了解更多